Terminal Aerodrome Forecast
Issued by NWS

Home | Current Version | Previous Version | Text Only | Print | Product List | Glossary On
Versions: 1 2 3 4 5 6 7 8 9 10 11 12 13 14 15 16 17 18 19 20 21 22 23 24
968
FTUS43 KABR 100855 AAD
TAFMBG
TAF AMD
KMBG 100855Z 1009/1106 VRB05KT P6SM BKN015
     FM101200 10007KT P6SM -SN OVC035
     FM110300 09012KT 4SM -SN OVC008=

USA.gov is the U.S. government's official web portal to all federal, state and local government web resources and services.